Enter the Airport ICAO Code

Search by Airport or City

Current Weather

LEBL | Barcelona–El Prat Airport

Barcelona, Catalonia, Spain

Last Update 15 Minutes Ago

Sky with Few Clouds

Temperature of 22 ºC

Light Winds from SouthEast

Temperature

22 ºC

Dew Point Temperature

13 ºC

Relative Humidity

56.84 %

Wind Direction

SouthEast (120º, Without Significant Variations)

Wind Velocity

7 km/h (04 kt)

Gusts

None

Visibility

Greater than 10 Kilometers

Sea Level Pressure

1021 hPa (Hectopascals)

Layers of Clouds

5% to 30% of Sky Covered from 914 mts (3000 ft) Above Ground Level.

METAR LEBL 211430Z 12004KT 9999 FEW030 22/13 Q1021 NOSIG

Weather Forecast

LEBL | Barcelona–El Prat Airport

Barcelona, Catalonia, Spain

Forecast valid for the next 21 Hours

From now on it is expected:

Light to Moderate Winds from East

In 4 to 6 hours it is expected the begining of:

Light to Moderate Winds from North

In 10 to 12 hours it is expected the begining of:

Moderate Winds from NorthEast

Maximum Temperature

23 ºC in -3 Hours

Minimum Temperature

17 ºC in 15 Hours

TAF LEBL 211100Z 2112/2212 34007KT 9999 FEW025 TX23/2112Z TN17/2206Z BECMG 2112/2114 07008KT BECMG 2119/2121 35008KT BECMG 2201/2203 04012KT